createdAt,value
2019-04-21T00:02:58.986Z,64.5
2019-04-21T00:07:02.779Z,64.6
2019-04-21T00:10:11.605Z,64.6
2019-04-21T00:12:45.742Z,64.2
2019-04-21T00:15:16.637Z,64.5
2019-04-21T00:17:35.149Z,64.6
2019-04-21T00:20:50.065Z,64.7
2019-04-21T00:24:20.125Z,64.5
2019-04-21T00:27:19.899Z,64.3
2019-04-21T00:30:26.702Z,64.6
2019-04-21T00:32:52.029Z,65
2019-04-21T00:35:20.978Z,65.4
2019-04-21T00:39:35.661Z,65.6
2019-04-21T00:42:05.032Z,66
2019-04-21T00:44:29.132Z,66.2
2019-04-21T00:47:45.445Z,66.3
2019-04-21T00:51:09.576Z,66.1
2019-04-21T00:54:08.695Z,66
2019-04-21T00:56:55.961Z,66.1
2019-04-21T01:02:37.997Z,66.1
2019-04-21T01:05:35.063Z,65.9
2019-04-21T01:08:19.719Z,65.8
2019-04-21T01:10:52.439Z,65.5
2019-04-21T01:14:19.755Z,65.4
2019-04-21T01:17:21.537Z,65.8
2019-04-21T01:19:50.478Z,66.1
2019-04-21T01:21:44.599Z,66.1
2019-04-21T01:24:59.946Z,66.2
2019-04-21T01:28:49.312Z,66.3
2019-04-21T01:31:35.937Z,66.9
2019-04-21T01:34:38.782Z,66.7
2019-04-21T01:37:32.465Z,67
2019-04-21T01:40:39.290Z,67.8
2019-04-21T01:43:23.166Z,67.2
2019-04-21T01:46:08.916Z,67.6
2019-04-21T01:48:52.406Z,67.5
2019-04-21T01:52:29.796Z,67.4
2019-04-21T01:55:12.167Z,67.3
2019-04-21T01:57:53.835Z,67.3
2019-04-21T02:00:32.503Z,67.6
2019-04-21T02:04:04.097Z,68.5
2019-04-21T02:06:57.113Z,68.3
2019-04-21T02:09:30.624Z,68.8
2019-04-21T02:12:37.701Z,68.8
2019-04-21T02:15:41.820Z,68.7
2019-04-21T02:18:21.874Z,68.7
2019-04-21T02:20:44.234Z,68.9
2019-04-21T02:24:03.574Z,68.9
2019-04-21T02:27:18.768Z,69.2
2019-04-21T02:30:35.204Z,69.6
2019-04-21T02:33:25.550Z,69.6
2019-04-21T02:39:17.820Z,69.9
2019-04-21T02:42:18.030Z,69.4
2019-04-21T02:45:16.127Z,68.8
2019-04-21T02:50:57.207Z,69.2
2019-04-21T02:54:40.316Z,69.1
2019-04-21T02:59:41.579Z,69.2
2019-04-21T03:03:19.489Z,69.1
2019-04-21T03:08:42.448Z,69.1
2019-04-21T03:11:23.733Z,69.2
2019-04-21T03:14:35.357Z,69.5
2019-04-21T03:20:16.836Z,70.1
2019-04-21T03:23:07.497Z,70.3
2019-04-21T03:29:02.177Z,70.7
2019-04-21T03:40:31.974Z,70
2019-04-21T03:43:49.869Z,70
2019-04-21T03:46:40.845Z,70.2
2019-04-21T03:49:47.087Z,70.5
2019-04-21T03:52:38.543Z,70.6
2019-04-21T04:01:15.379Z,70.6
2019-04-21T04:04:33.873Z,70.4
2019-04-21T04:07:10.478Z,70.5
2019-04-21T04:10:21.830Z,70.1
2019-04-21T04:12:50.052Z,69.5
2019-04-21T04:15:55.853Z,69.1
2019-04-21T04:30:51.646Z,69.2
2019-04-21T04:33:36.966Z,71.1
2019-04-21T04:42:12.084Z,73.4
2019-04-21T04:45:23.630Z,75.2
2019-04-21T04:48:05.236Z,78.7
2019-04-21T04:52:50.981Z,80.3
2019-04-21T04:56:38.107Z,80.9
2019-04-21T05:02:39.808Z,79.8
2019-04-21T05:05:26.213Z,79.5
2019-04-21T05:08:41.737Z,78.3
2019-04-21T05:11:18.145Z,78.3
2019-04-21T05:17:13.814Z,78.1
2019-04-21T05:20:01.486Z,77.9
2019-04-21T05:22:34.834Z,77.5
2019-04-21T05:25:03.288Z,76.6
2019-04-21T05:27:46.521Z,74.9
2019-04-21T05:31:17.805Z,74.8
2019-04-21T05:34:09.284Z,74
2019-04-21T05:36:43.986Z,73.5
2019-04-21T05:39:32.735Z,72.6
2019-04-21T05:42:03.812Z,71.4
2019-04-21T05:46:04.226Z,69.2
2019-04-21T05:48:45.347Z,68.1
2019-04-21T05:51:20.121Z,67
2019-04-21T05:57:14.202Z,63.4
2019-04-21T06:00:22.815Z,61.8
2019-04-21T06:03:22.851Z,60
2019-04-21T06:06:32.120Z,58.8
2019-04-21T06:09:07.157Z,59.3
2019-04-21T06:12:08.313Z,60.4
2019-04-21T06:15:06.846Z,60
2019-04-21T06:18:04.241Z,58.9
2019-04-21T06:21:15.773Z,56.2
2019-04-21T06:23:49.449Z,56.1
2019-04-21T06:27:22.294Z,56.2
2019-04-21T06:29:35.992Z,54.1
2019-04-21T06:32:58.897Z,52.6
2019-04-21T06:36:11.163Z,51.7
2019-04-21T06:38:53.723Z,48.3
2019-04-21T06:41:52.893Z,46.7
2019-04-21T06:44:52.689Z,45
2019-04-21T06:47:34.891Z,46.3
2019-04-21T06:50:07.356Z,45.6
2019-04-21T06:53:44.199Z,45
2019-04-21T06:56:11.916Z,43.9
2019-04-21T06:59:04.911Z,43.7
2019-04-21T07:02:21.053Z,43
2019-04-21T07:05:12.971Z,42.3
2019-04-21T07:07:54.472Z,40.6
2019-04-21T07:10:42.859Z,41.5
2019-04-21T07:16:50.733Z,41
2019-04-21T07:19:59.925Z,41.8
2019-04-21T07:22:36.734Z,41.9
2019-04-21T07:25:38.290Z,41
2019-04-21T07:28:38.571Z,40.5
2019-04-21T07:31:46.751Z,41.2
2019-04-21T07:34:33.128Z,41.7
2019-04-21T07:37:17.161Z,41.8
2019-04-21T07:39:58.509Z,41.1
2019-04-21T07:42:47.642Z,40.9
2019-04-21T07:45:39.960Z,38.2
2019-04-21T07:48:55.300Z,38.9
2019-04-21T07:52:10.742Z,38.8
2019-04-21T07:57:18.596Z,39.4
2019-04-21T08:01:11.491Z,38.6
2019-04-21T08:03:51.814Z,38.9
2019-04-21T08:06:45.907Z,39.7
2019-04-21T08:09:31.697Z,39.4
2019-04-21T08:15:33.571Z,38.2
2019-04-21T08:18:11.507Z,37.9
2019-04-21T08:21:10.203Z,37.1
2019-04-21T08:24:06.013Z,35.6
2019-04-21T08:27:25.165Z,36.8
2019-04-21T08:30:18.865Z,35.8
2019-04-21T08:33:24.513Z,37
2019-04-21T08:36:39.809Z,37.6
2019-04-21T08:38:58.103Z,37.7
2019-04-21T08:41:55.761Z,37.8
2019-04-21T08:44:46.496Z,39.1
2019-04-21T08:50:36.134Z,38.2
2019-04-21T08:53:40.877Z,38.5
2019-04-21T08:56:46.478Z,39.6
2019-04-21T08:59:43.341Z,39.9
2019-04-21T09:02:22.796Z,40.2
2019-04-21T09:05:17.367Z,40.5
2019-04-21T09:08:19.349Z,43.1
2019-04-21T09:11:16.042Z,41.1
2019-04-21T09:14:06.898Z,39.4
2019-04-21T09:16:51.193Z,39.6
2019-04-21T09:22:47.553Z,41.8
2019-04-21T09:25:57.163Z,43.1
2019-04-21T09:28:39.284Z,43.4
2019-04-21T09:30:57.472Z,43.3
2019-04-21T09:33:52.509Z,41.7
2019-04-21T09:36:49.997Z,40.7
2019-04-21T09:39:38.710Z,42.3
2019-04-21T09:42:47.281Z,40.8
2019-04-21T09:45:24.111Z,40
2019-04-21T09:48:24.366Z,40.3
2019-04-21T09:51:09.157Z,41.6
2019-04-21T09:54:27.725Z,42.5
2019-04-21T09:57:27.279Z,40.6
2019-04-21T10:00:20.991Z,41.9
2019-04-21T10:03:13.637Z,40.7
2019-04-21T10:05:49.853Z,40.8
2019-04-21T10:09:01.194Z,37.7
2019-04-21T10:11:42.126Z,39.3
2019-04-21T10:14:37.070Z,39.2
2019-04-21T10:17:33.529Z,37.8
2019-04-21T10:20:29.011Z,39.2
2019-04-21T10:23:25.570Z,38.6
2019-04-21T10:26:20.219Z,39.1
2019-04-21T10:29:32.595Z,38.3
2019-04-21T10:32:13.560Z,39
2019-04-21T10:35:08.058Z,38.9
2019-04-21T10:38:40.451Z,39.6
2019-04-21T10:40:59.749Z,38.7
2019-04-21T10:43:56.005Z,39.4
2019-04-21T10:46:56.091Z,41.1
2019-04-21T10:49:48.759Z,40.7
2019-04-21T10:52:43.357Z,39.4
2019-04-21T10:56:19.690Z,39.6
2019-04-21T10:58:36.729Z,37.9
2019-04-21T11:01:32.004Z,40.1
2019-04-21T11:04:39.910Z,39.7
2019-04-21T11:07:46.422Z,39.7
2019-04-21T11:10:20.450Z,40.8
2019-04-21T11:13:15.145Z,40.8
2019-04-21T11:16:12.974Z,41.1
2019-04-21T11:19:06.840Z,40.5
2019-04-21T11:22:03.493Z,39.8
2019-04-21T11:24:59.212Z,40.5
2019-04-21T11:27:55.780Z,40
2019-04-21T11:30:53.154Z,39.6
2019-04-21T11:33:47.307Z,39
2019-04-21T11:36:42.262Z,39.6
2019-04-21T11:40:02.874Z,40.4
2019-04-21T11:42:35.641Z,38.9
2019-04-21T11:45:32.865Z,38.9
2019-04-21T11:48:28.187Z,39.1
2019-04-21T11:51:22.946Z,39.7
2019-04-21T11:54:17.559Z,39.7
2019-04-21T11:57:32.804Z,38.6
2019-04-21T12:00:09.829Z,40.3
2019-04-21T12:03:06.249Z,38.8
2019-04-21T12:06:03.529Z,39.3
2019-04-21T12:09:04.852Z,37.5
2019-04-21T12:11:53.788Z,38.4
2019-04-21T12:14:48.503Z,39.2
2019-04-21T12:17:46.014Z,39.3
2019-04-21T12:20:40.220Z,39.2
2019-04-21T12:23:36.950Z,39
2019-04-21T12:26:32.347Z,37.5
2019-04-21T12:29:27.488Z,37.4
2019-04-21T12:32:24.553Z,37.9
2019-04-21T12:35:20.216Z,37.6
2019-04-21T12:38:14.883Z,37.7
2019-04-21T12:41:11.224Z,37.4
2019-04-21T12:44:08.674Z,38.3
2019-04-21T12:47:02.184Z,38.8
2019-04-21T12:49:59.186Z,38.8
2019-04-21T12:52:54.128Z,38
2019-04-21T12:55:51.812Z,37.8
2019-04-21T12:58:45.131Z,37
2019-04-21T13:01:41.896Z,39.1
2019-04-21T13:04:38.031Z,38.3
2019-04-21T13:07:33.624Z,37.6
2019-04-21T13:10:28.927Z,39.2
2019-04-21T13:13:24.452Z,38.5
2019-04-21T13:16:21.146Z,39.1
2019-04-21T13:19:15.931Z,38
2019-04-21T13:22:12.949Z,37.5
2019-04-21T13:25:08.100Z,37.4
2019-04-21T13:28:03.378Z,37.5
2019-04-21T13:30:58.696Z,36.6
2019-04-21T13:33:55.920Z,36.6
2019-04-21T13:36:51.851Z,36.8
2019-04-21T13:40:52.657Z,37.4
2019-04-21T13:42:58.819Z,36.9
2019-04-21T13:45:37.923Z,36.6
2019-04-21T13:48:34.906Z,36.2
2019-04-21T13:51:30.886Z,35.9
2019-04-21T13:54:27.487Z,36.8
2019-04-21T13:57:22.790Z,37.4
2019-04-21T14:00:19.458Z,37.3
2019-04-21T14:03:14.691Z,36.6
2019-04-21T14:06:09.050Z,36.4
2019-04-21T14:09:05.332Z,35.7
2019-04-21T14:11:59.656Z,36
2019-04-21T14:14:57.011Z,36.4
2019-04-21T14:17:52.901Z,36
2019-04-21T14:20:47.407Z,35.1
2019-04-21T14:23:52.843Z,36
2019-04-21T14:26:40.595Z,35.7
2019-04-21T14:29:35.884Z,35.1
2019-04-21T14:32:30.276Z,36
2019-04-21T14:35:27.199Z,35.8
2019-04-21T14:38:24.792Z,35.4
2019-04-21T14:41:17.984Z,36.4
2019-04-21T14:44:15.413Z,37.7
2019-04-21T14:47:11.139Z,35.5
2019-04-21T14:50:07.238Z,36.3
2019-04-21T14:53:03.716Z,37.6
2019-04-21T14:55:57.631Z,35.5
2019-04-21T14:59:00.824Z,35.7
2019-04-21T15:01:47.696Z,35.6
2019-04-21T15:04:46.007Z,36
2019-04-21T15:07:39.778Z,36.1
2019-04-21T15:10:36.870Z,36.4
2019-04-21T15:13:32.442Z,37.1
2019-04-21T15:16:27.359Z,37.4
2019-04-21T15:19:22.928Z,38.2
2019-04-21T15:22:19.033Z,36.9
2019-04-21T15:25:14.326Z,35.8
2019-04-21T15:28:10.045Z,36.1
2019-04-21T15:31:05.652Z,36.6
2019-04-21T15:34:03.177Z,37.7
2019-04-21T15:36:59.958Z,36.3
2019-04-21T15:39:53.558Z,36.6
2019-04-21T15:42:48.955Z,36.6
2019-04-21T15:45:45.035Z,36.9
2019-04-21T15:48:41.675Z,36.7
2019-04-21T15:51:37.899Z,36.8
2019-04-21T15:54:32.888Z,36.1
2019-04-21T15:57:28.100Z,35.9
2019-04-21T16:00:25.094Z,35.8
2019-04-21T16:03:21.139Z,36.2
2019-04-21T16:06:15.367Z,35.8
2019-04-21T16:09:25.266Z,36.4
2019-04-21T16:12:08.266Z,35.9
2019-04-21T16:15:05.084Z,36.1
2019-04-21T16:18:01.468Z,37.3
2019-04-21T16:20:55.872Z,36
2019-04-21T16:23:51.215Z,35.8
2019-04-21T16:26:47.035Z,35.4
2019-04-21T16:29:43.934Z,36.4
2019-04-21T16:32:38.848Z,37
2019-04-21T16:35:35.765Z,37.3
2019-04-21T16:38:29.775Z,38
2019-04-21T16:41:24.939Z,38.4
2019-04-21T16:44:23.184Z,37.7
2019-04-21T16:47:17.677Z,37.3
2019-04-21T16:50:12.325Z,37.6
2019-04-21T16:53:10.313Z,37.6
2019-04-21T16:56:05.297Z,37.4
2019-04-21T16:59:00.954Z,37.7
2019-04-21T17:01:56.664Z,37.8
2019-04-21T17:04:52.491Z,38.5
2019-04-21T17:07:49.063Z,38.7
2019-04-21T17:12:57.587Z,38.8
2019-04-21T17:13:39.996Z,38.9
2019-04-21T17:17:49.499Z,39
2019-04-21T17:19:48.971Z,39.3
2019-04-21T17:22:27.862Z,39
2019-04-21T17:25:29.665Z,39.1
2019-04-21T17:28:17.831Z,39.6
2019-04-21T17:31:13.344Z,39.3
2019-04-21T17:34:25.076Z,39.7
2019-04-21T17:37:05.631Z,39.9
2019-04-21T17:40:08.985Z,39.9
2019-04-21T17:43:13.949Z,39.7
2019-04-21T17:45:51.541Z,40.1
2019-04-21T17:48:48.975Z,40.1
2019-04-21T17:52:02.887Z,40.5
2019-04-21T17:54:54.569Z,40.8
2019-04-21T18:01:53.044Z,41.4
2019-04-21T18:04:40.738Z,41.6
2019-04-21T18:07:20.915Z,41.7
2019-04-21T18:10:30.504Z,42.1
2019-04-21T18:12:51.947Z,41.8
2019-04-21T18:16:01.380Z,41.5
2019-04-21T18:18:05.278Z,41.2
2019-04-21T18:21:00.937Z,41.9
2019-04-21T18:24:20.849Z,42.2
2019-04-21T18:27:05.418Z,42.9
2019-04-21T18:29:46.624Z,43.2
2019-04-21T18:32:44.349Z,43.4
2019-04-21T18:35:53.298Z,43.1
2019-04-21T18:39:29.787Z,44.5
2019-04-21T18:41:30.644Z,43.7
2019-04-21T18:46:13.037Z,43.2
2019-04-21T18:48:09.121Z,43.6
2019-04-21T18:50:16.535Z,44.7
2019-04-21T18:54:06.954Z,43.8
2019-04-21T18:56:18.908Z,43.5
2019-04-21T18:59:04.524Z,44.6
2019-04-21T19:02:16.202Z,44.8
2019-04-21T19:05:13.007Z,44.5
2019-04-21T19:08:46.307Z,43.7
2019-04-21T19:11:51.657Z,43.2
2019-04-21T19:15:19.589Z,42.8
2019-04-21T19:18:45.570Z,43.3
2019-04-21T19:20:42.755Z,43.2
2019-04-21T19:23:38.980Z,42.9
2019-04-21T19:26:37.327Z,43.9
2019-04-21T19:32:23.702Z,44.7
2019-04-21T19:34:34.631Z,44.7
2019-04-21T19:37:24.319Z,44.4
2019-04-21T19:43:50.760Z,44.6
2019-04-21T19:46:55.336Z,45.6
2019-04-21T19:49:53.888Z,45.9
2019-04-21T19:52:11.072Z,46.6
2019-04-21T19:54:50.603Z,47.7
2019-04-21T19:57:34.623Z,46.8
2019-04-21T20:00:28.649Z,47.5
2019-04-21T20:03:26.430Z,48.2
2019-04-21T20:06:51.475Z,48.6
2019-04-21T20:10:26.694Z,48.7
2019-04-21T20:13:40.409Z,50.5
2019-04-21T20:16:18.732Z,51.1
2019-04-21T20:18:34.739Z,51.8
2019-04-21T20:20:58.733Z,52.4
2019-04-21T20:24:14.084Z,53.1
2019-04-21T20:27:20.898Z,53.2
2019-04-21T20:34:04.934Z,53.8
2019-04-21T20:36:41.381Z,54.5
2019-04-21T20:39:01.557Z,54.5
2019-04-21T20:42:08.505Z,55.3
2019-04-21T20:45:40.035Z,55.5
2019-04-21T20:47:46.630Z,56.2
2019-04-21T20:51:04.938Z,56.5
2019-04-21T20:53:58.937Z,56
2019-04-21T20:56:48.196Z,56
2019-04-21T20:59:40.741Z,54.9
2019-04-21T21:03:00.696Z,54.6
2019-04-21T21:05:29.685Z,54
2019-04-21T21:08:55.068Z,54
2019-04-21T21:11:25.977Z,53.4
2019-04-21T21:14:36.092Z,52.5
2019-04-21T21:17:59.244Z,52.7
2019-04-21T21:23:02.698Z,53.3
2019-04-21T21:26:43.685Z,53.5
2019-04-21T21:28:57.280Z,53.8
2019-04-21T21:32:31.242Z,54.1
2019-04-21T21:35:07.771Z,54.3
2019-04-21T21:38:06.377Z,54.4
2019-04-21T21:40:45.311Z,54.8
2019-04-21T21:42:51.244Z,55
2019-04-21T21:46:01.297Z,55.1
2019-04-21T21:49:23.548Z,55.4
2019-04-21T21:52:16.388Z,55.5
2019-04-21T21:54:33.822Z,55.9
2019-04-21T21:57:26.654Z,55.8
2019-04-21T22:00:23.935Z,55.7
2019-04-21T22:03:39.743Z,55.7
2019-04-21T22:06:30.694Z,55.8
2019-04-21T22:09:10.409Z,56.1
2019-04-21T22:12:12.308Z,56
2019-04-21T22:15:19.497Z,56.4
2019-04-21T22:18:59.727Z,56.5
2019-04-21T22:21:53.117Z,56.7
2019-04-21T22:24:19.762Z,56.7
2019-04-21T22:26:40.973Z,56.8
2019-04-21T22:29:52.749Z,57.1
2019-04-21T22:32:36.928Z,57.1
2019-04-21T22:35:53.687Z,57.2
2019-04-21T22:39:18.718Z,57.4
2019-04-21T22:41:43.460Z,57.5
2019-04-21T22:44:12.697Z,57.6
2019-04-21T22:47:29.502Z,57.4
2019-04-21T22:50:04.591Z,57.7
2019-04-21T22:53:10.206Z,57.9
2019-04-21T22:56:18.350Z,58.3
2019-04-21T22:58:52.807Z,58.5
2019-04-21T23:01:53.970Z,58.6
2019-04-21T23:04:56.581Z,58.5
2019-04-21T23:07:59.766Z,58.6
2019-04-21T23:10:30.007Z,58.7
2019-04-21T23:13:31.214Z,58.9
2019-04-21T23:16:37.778Z,59.1
2019-04-21T23:20:08.685Z,59.2
2019-04-21T23:23:20.838Z,59.4
2019-04-21T23:25:55.572Z,59.4
2019-04-21T23:29:07.309Z,59.3
2019-04-21T23:32:02.834Z,59.3
2019-04-21T23:33:52.736Z,59
2019-04-21T23:37:14.925Z,59.1
2019-04-21T23:39:43.611Z,59.3
2019-04-21T23:42:46.841Z,59.5
2019-04-21T23:45:45.156Z,59.6
2019-04-21T23:49:21.301Z,59.5
2019-04-21T23:51:55.517Z,59.2
2019-04-21T23:54:17.949Z,59.9
2019-04-21T23:57:40.751Z,59.3
